ANZ970 NZAA-NFTF
Flight info
| Callsign | ANZ970 |
|---|---|
| Flight time | 2h 23m |
| Altitude | 39000 |
| Route | ELPAK B575 KETUP KETUP1A |
| Aircraft | B789/H-SDE1E2E3FGHIJ2J3J4J5M1RWXY/LB1D1 |
Departure
| Time | 2026-05-06 14:05 |
|---|---|
| Airport | Auckland International Airport (NZAA) |
Arrival
| Time | 2026-05-06 16:28 |
|---|---|
| Airport | Fua'amotu International Airport (NFTF) |
| Time | Latitude | Longitude | Altitude | Speed | Heading |
|---|---|---|---|---|---|
| 2026-05-06 13:27 | -37.00828 | 174.78147 | 31 ft | 0 kts | 39° |
| 2026-05-06 13:55 | -37.00829 | 174.78146 | 31 ft | 2 kts | 39° |
| 2026-05-06 13:56 | -37.00842 | 174.78133 | 29 ft | 2 kts | 39° |
| 2026-05-06 13:56 | -37.00854 | 174.78120 | 30 ft | 2 kts | 40° |
| 2026-05-06 13:56 | -37.00867 | 174.78106 | 30 ft | 2 kts | 58° |
| 2026-05-06 13:56 | -37.00871 | 174.78087 | 29 ft | 2 kts | 89° |
| 2026-05-06 13:57 | -37.00869 | 174.78066 | 29 ft | 2 kts | 105° |
| 2026-05-06 13:57 | -37.00863 | 174.78047 | 27 ft | 2 kts | 125° |
| 2026-05-06 13:57 | -37.00857 | 174.78039 | 28 ft | 1 kts | 145° |
| 2026-05-06 13:57 | -37.00856 | 174.78038 | 28 ft | 0 kts | 148° |
| 2026-05-06 13:59 | -37.00858 | 174.78039 | 28 ft | 2 kts | 149° |
| 2026-05-06 13:59 | -37.00896 | 174.78055 | 30 ft | 11 kts | 162° |
| 2026-05-06 14:00 | -37.00991 | 174.78095 | 30 ft | 16 kts | 161° |
| 2026-05-06 14:00 | -37.01055 | 174.78085 | 30 ft | 5 kts | 236° |
| 2026-05-06 14:00 | -37.01078 | 174.78011 | 29 ft | 13 kts | 251° |
| 2026-05-06 14:00 | -37.01111 | 174.77888 | 28 ft | 16 kts | 251° |
| 2026-05-06 14:01 | -37.01152 | 174.77737 | 28 ft | 21 kts | 250° |
| 2026-05-06 14:01 | -37.01199 | 174.77637 | 28 ft | 5 kts | 199° |
| 2026-05-06 14:01 | -37.01231 | 174.77639 | 29 ft | 5 kts | 169° |
| 2026-05-06 14:01 | -37.01270 | 174.77634 | 27 ft | 7 kts | 206° |
| 2026-05-06 14:02 | -37.01307 | 174.77559 | 27 ft | 15 kts | 251° |
| 2026-05-06 14:02 | -37.01345 | 174.77422 | 27 ft | 16 kts | 251° |
| 2026-05-06 14:02 | -37.01378 | 174.77298 | 29 ft | 14 kts | 251° |
| 2026-05-06 14:02 | -37.01413 | 174.77171 | 27 ft | 17 kts | 250° |
| 2026-05-06 14:03 | -37.01480 | 174.77104 | 27 ft | 11 kts | 195° |
| 2026-05-06 14:03 | -37.01552 | 174.77084 | 27 ft | 11 kts | 190° |
| 2026-05-06 14:03 | -37.01615 | 174.77095 | 27 ft | 5 kts | 140° |
| 2026-05-06 14:03 | -37.01622 | 174.77126 | 27 ft | 5 kts | 82° |
| 2026-05-06 14:04 | -37.01602 | 174.77190 | 27 ft | 14 kts | 70° |
| 2026-05-06 14:04 | -37.01518 | 174.77493 | 32 ft | 69 kts | 71° |
| 2026-05-06 14:04 | -37.01295 | 174.78296 | 27 ft | 113 kts | 70° |
| 2026-05-06 14:04 | -37.01002 | 174.79350 | 26 ft | 148 kts | 70° |
| 2026-05-06 14:05 | -37.00612 | 174.80737 | 324 ft | 176 kts | 69° |
| 2026-05-06 14:05 | -37.00246 | 174.82135 | 1463 ft | 178 kts | 68° |
| 2026-05-06 14:05 | -36.99835 | 174.83682 | 2254 ft | 200 kts | 65° |
| 2026-05-06 14:05 | -36.99315 | 174.85436 | 2781 ft | 228 kts | 65° |
| 2026-05-06 14:06 | -36.98769 | 174.87368 | 3496 ft | 249 kts | 67° |
| 2026-05-06 14:06 | -36.98208 | 174.89428 | 4676 ft | 252 kts | 67° |
| 2026-05-06 14:06 | -36.97626 | 174.91542 | 5743 ft | 262 kts | 67° |
| 2026-05-06 14:06 | -36.97016 | 174.93727 | 6796 ft | 271 kts | 67° |
| 2026-05-06 14:07 | -36.96392 | 174.95970 | 7902 ft | 274 kts | 67° |
| 2026-05-06 14:07 | -36.95763 | 174.98234 | 9060 ft | 277 kts | 68° |
| 2026-05-06 14:07 | -36.95083 | 175.00502 | 10155 ft | 279 kts | 59° |
| 2026-05-06 14:07 | -36.93822 | 175.02385 | 10659 ft | 299 kts | 35° |
| 2026-05-06 14:08 | -36.91888 | 175.03529 | 11115 ft | 322 kts | 11° |
| 2026-05-06 14:08 | -36.89620 | 175.03610 | 11899 ft | 330 kts | 357° |
| 2026-05-06 14:08 | -36.87302 | 175.03499 | 12882 ft | 336 kts | 357° |
| 2026-05-06 14:08 | -36.84938 | 175.03365 | 13868 ft | 342 kts | 356° |
| 2026-05-06 14:09 | -36.82528 | 175.03236 | 14769 ft | 349 kts | 357° |
| 2026-05-06 14:09 | -36.80080 | 175.03113 | 15639 ft | 355 kts | 356° |
| 2026-05-06 14:09 | -36.77591 | 175.02989 | 16501 ft | 361 kts | 356° |
| 2026-05-06 14:09 | -36.75054 | 175.02857 | 17340 ft | 367 kts | 356° |
| 2026-05-06 14:10 | -36.72474 | 175.02722 | 18136 ft | 374 kts | 356° |
| 2026-05-06 14:10 | -36.69850 | 175.02589 | 18907 ft | 381 kts | 356° |
| 2026-05-06 14:10 | -36.67189 | 175.02452 | 19645 ft | 386 kts | 356° |
| 2026-05-06 14:10 | -36.64491 | 175.02313 | 20370 ft | 390 kts | 356° |
| 2026-05-06 14:11 | -36.61756 | 175.02173 | 21099 ft | 395 kts | 355° |
| 2026-05-06 14:11 | -36.59023 | 175.02034 | 21754 ft | 400 kts | 355° |
| 2026-05-06 14:11 | -36.56225 | 175.01892 | 22430 ft | 405 kts | 355° |
| 2026-05-06 14:11 | -36.53394 | 175.01748 | 23087 ft | 410 kts | 355° |
| 2026-05-06 14:12 | -36.50527 | 175.01602 | 23739 ft | 414 kts | 355° |
| 2026-05-06 14:12 | -36.47632 | 175.01753 | 24275 ft | 421 kts | 9° |
| 2026-05-06 14:12 | -36.44802 | 175.02799 | 24801 ft | 428 kts | 22° |
| 2026-05-06 14:12 | -36.42209 | 175.04661 | 25298 ft | 434 kts | 33° |
| 2026-05-06 14:13 | -36.39703 | 175.06803 | 25708 ft | 440 kts | 34° |
| 2026-05-06 14:13 | -36.37173 | 175.08983 | 26221 ft | 443 kts | 34° |
| 2026-05-06 14:13 | -36.34629 | 175.11166 | 26712 ft | 447 kts | 34° |
| 2026-05-06 14:13 | -36.32052 | 175.13360 | 27196 ft | 450 kts | 34° |
| 2026-05-06 14:14 | -36.29494 | 175.15540 | 27674 ft | 454 kts | 34° |
| 2026-05-06 14:14 | -36.26848 | 175.17800 | 28155 ft | 457 kts | 34° |
| 2026-05-06 14:14 | -36.24255 | 175.20013 | 28605 ft | 460 kts | 34° |
| 2026-05-06 14:14 | -36.21607 | 175.22268 | 29056 ft | 464 kts | 34° |
| 2026-05-06 14:15 | -36.18939 | 175.24536 | 29505 ft | 467 kts | 34° |
| 2026-05-06 14:15 | -36.16251 | 175.26822 | 29933 ft | 470 kts | 34° |
| 2026-05-06 14:15 | -36.13528 | 175.29136 | 30281 ft | 475 kts | 34° |
| 2026-05-06 14:15 | -36.10793 | 175.31457 | 30650 ft | 478 kts | 34° |
| 2026-05-06 14:16 | -36.08044 | 175.33789 | 30994 ft | 480 kts | 34° |
| 2026-05-06 14:16 | -36.05278 | 175.36132 | 31346 ft | 483 kts | 34° |
| 2026-05-06 14:16 | -36.02491 | 175.38492 | 31677 ft | 486 kts | 34° |
| 2026-05-06 14:16 | -35.99725 | 175.40832 | 31984 ft | 489 kts | 34° |
| 2026-05-06 14:17 | -35.96909 | 175.43211 | 32296 ft | 492 kts | 34° |
| 2026-05-06 14:17 | -35.94066 | 175.45610 | 32461 ft | 498 kts | 34° |
| 2026-05-06 14:17 | -35.91196 | 175.48033 | 32788 ft | 500 kts | 34° |
| 2026-05-06 14:17 | -35.88317 | 175.50461 | 33067 ft | 503 kts | 33° |
| 2026-05-06 14:18 | -35.85417 | 175.52902 | 33346 ft | 505 kts | 33° |
| 2026-05-06 14:18 | -35.82502 | 175.55354 | 33614 ft | 508 kts | 33° |
| 2026-05-06 14:18 | -35.79575 | 175.57815 | 33886 ft | 511 kts | 33° |
| 2026-05-06 14:18 | -35.76632 | 175.60286 | 34143 ft | 513 kts | 33° |
| 2026-05-06 14:19 | -35.73669 | 175.62772 | 34381 ft | 515 kts | 33° |
| 2026-05-06 14:19 | -35.70736 | 175.65230 | 34625 ft | 517 kts | 33° |
| 2026-05-06 14:19 | -35.67763 | 175.67721 | 34874 ft | 518 kts | 33° |
| 2026-05-06 14:19 | -35.64775 | 175.70221 | 35190 ft | 518 kts | 33° |
| 2026-05-06 14:20 | -35.61798 | 175.72711 | 35533 ft | 516 kts | 33° |
| 2026-05-06 14:20 | -35.58830 | 175.75189 | 35877 ft | 515 kts | 33° |
| 2026-05-06 14:20 | -35.55867 | 175.77662 | 36215 ft | 514 kts | 33° |
| 2026-05-06 14:20 | -35.52913 | 175.80124 | 36543 ft | 513 kts | 33° |
| 2026-05-06 14:21 | -35.49956 | 175.82586 | 36798 ft | 513 kts | 33° |
| 2026-05-06 14:21 | -35.46996 | 175.85050 | 37065 ft | 513 kts | 33° |
| 2026-05-06 14:21 | -35.44041 | 175.87508 | 37406 ft | 512 kts | 32° |
| 2026-05-06 14:21 | -35.41127 | 175.89928 | 37701 ft | 511 kts | 32° |
| 2026-05-06 14:22 | -35.38184 | 175.92370 | 38000 ft | 510 kts | 32° |
| 2026-05-06 14:22 | -35.35247 | 175.94806 | 38318 ft | 509 kts | 32° |
| 2026-05-06 14:22 | -35.32316 | 175.97234 | 38633 ft | 508 kts | 32° |
| 2026-05-06 14:22 | -35.29392 | 175.99655 | 38941 ft | 507 kts | 32° |
| 2026-05-06 14:23 | -35.26466 | 176.02074 | 39187 ft | 506 kts | 32° |
| 2026-05-06 14:23 | -35.23545 | 176.04488 | 39346 ft | 507 kts | 32° |
| 2026-05-06 14:23 | -35.17667 | 176.09339 | 39325 ft | 508 kts | 32° |
| 2026-05-06 14:24 | -35.11822 | 176.14154 | 39334 ft | 506 kts | 32° |
| 2026-05-06 14:24 | -35.06010 | 176.18932 | 39340 ft | 506 kts | 32° |
| 2026-05-06 14:25 | -35.00152 | 176.23740 | 39338 ft | 506 kts | 32° |
| 2026-05-06 14:25 | -34.94297 | 176.28537 | 39334 ft | 507 kts | 32° |
| 2026-05-06 14:26 | -34.88454 | 176.33317 | 39331 ft | 508 kts | 32° |
| 2026-05-06 14:26 | -34.82564 | 176.38126 | 39332 ft | 509 kts | 32° |
| 2026-05-06 14:27 | -34.76671 | 176.42930 | 39335 ft | 509 kts | 32° |
| 2026-05-06 14:27 | -34.70816 | 176.47694 | 39335 ft | 509 kts | 32° |
| 2026-05-06 14:28 | -34.64923 | 176.52481 | 39334 ft | 510 kts | 32° |
| 2026-05-06 14:28 | -34.59008 | 176.57277 | 39334 ft | 511 kts | 32° |
| 2026-05-06 14:29 | -34.53083 | 176.62073 | 39332 ft | 510 kts | 32° |
| 2026-05-06 14:29 | -34.47224 | 176.66807 | 39329 ft | 509 kts | 32° |
| 2026-05-06 14:30 | -34.41325 | 176.71566 | 39341 ft | 508 kts | 32° |
| 2026-05-06 14:30 | -34.35409 | 176.76329 | 39341 ft | 511 kts | 32° |
| 2026-05-06 14:31 | -34.29509 | 176.81072 | 39346 ft | 512 kts | 32° |
| 2026-05-06 14:31 | -34.23535 | 176.85866 | 39345 ft | 512 kts | 32° |
| 2026-05-06 14:32 | -34.17636 | 176.90592 | 39334 ft | 511 kts | 32° |
| 2026-05-06 14:32 | -34.11591 | 176.95106 | 39344 ft | 511 kts | 28° |
| 2026-05-06 14:33 | -34.05464 | 176.99496 | 39342 ft | 511 kts | 29° |
| 2026-05-06 14:33 | -33.99324 | 177.03830 | 39342 ft | 510 kts | 28° |
| 2026-05-06 14:34 | -33.93245 | 177.08141 | 39335 ft | 510 kts | 29° |
| 2026-05-06 14:34 | -33.87108 | 177.12475 | 39333 ft | 511 kts | 28° |
| 2026-05-06 14:35 | -33.80934 | 177.16830 | 39338 ft | 518 kts | 28° |
| 2026-05-06 14:35 | -33.74720 | 177.21209 | 39334 ft | 514 kts | 28° |
| 2026-05-06 14:36 | -33.68574 | 177.25528 | 39326 ft | 510 kts | 28° |
| 2026-05-06 14:36 | -33.62469 | 177.29814 | 39324 ft | 511 kts | 28° |
| 2026-05-06 14:37 | -33.56309 | 177.34129 | 39331 ft | 513 kts | 29° |
| 2026-05-06 14:37 | -33.50156 | 177.38434 | 39330 ft | 511 kts | 28° |
| 2026-05-06 14:38 | -33.44020 | 177.42719 | 39321 ft | 510 kts | 28° |
| 2026-05-06 14:38 | -33.37880 | 177.47000 | 39321 ft | 511 kts | 28° |
| 2026-05-06 14:39 | -33.31764 | 177.51258 | 39324 ft | 512 kts | 28° |
| 2026-05-06 14:39 | -33.25585 | 177.55551 | 39328 ft | 513 kts | 28° |
| 2026-05-06 14:40 | -33.19409 | 177.59836 | 39327 ft | 513 kts | 28° |
| 2026-05-06 14:40 | -33.13230 | 177.64115 | 39310 ft | 513 kts | 28° |
| 2026-05-06 14:41 | -33.07038 | 177.68398 | 39311 ft | 514 kts | 28° |
| 2026-05-06 14:41 | -33.00885 | 177.72645 | 39312 ft | 514 kts | 28° |
| 2026-05-06 14:42 | -32.94706 | 177.76905 | 39306 ft | 512 kts | 28° |
| 2026-05-06 14:42 | -32.88541 | 177.81147 | 39308 ft | 511 kts | 28° |
| 2026-05-06 14:43 | -32.82403 | 177.85364 | 39308 ft | 513 kts | 28° |
| 2026-05-06 14:43 | -32.76212 | 177.89610 | 39311 ft | 514 kts | 28° |
| 2026-05-06 14:44 | -32.70009 | 177.93858 | 39310 ft | 515 kts | 28° |
| 2026-05-06 14:45 | -32.60697 | 178.00222 | 39306 ft | 515 kts | 28° |
| 2026-05-06 14:45 | -32.54473 | 178.04467 | 39302 ft | 517 kts | 28° |
| 2026-05-06 14:46 | -32.48241 | 178.08711 | 39298 ft | 516 kts | 28° |
| 2026-05-06 14:46 | -32.42030 | 178.12933 | 39301 ft | 511 kts | 29° |
| 2026-05-06 14:47 | -32.35896 | 178.17096 | 39298 ft | 511 kts | 29° |
| 2026-05-06 14:47 | -32.29719 | 178.21282 | 39298 ft | 512 kts | 29° |
| 2026-05-06 14:48 | -32.24525 | 178.24797 | 39297 ft | 513 kts | 28° |
| 2026-05-06 14:48 | -32.18359 | 178.28963 | 39300 ft | 514 kts | 28° |
| 2026-05-06 14:49 | -32.12146 | 178.33154 | 39301 ft | 514 kts | 28° |
| 2026-05-06 14:49 | -32.05938 | 178.37336 | 39287 ft | 514 kts | 28° |
| 2026-05-06 14:50 | -31.99708 | 178.41525 | 39288 ft | 517 kts | 28° |
| 2026-05-06 14:50 | -31.93460 | 178.45721 | 39288 ft | 516 kts | 28° |
| 2026-05-06 14:51 | -31.87235 | 178.49894 | 39296 ft | 513 kts | 28° |
| 2026-05-06 14:51 | -31.81038 | 178.54042 | 39289 ft | 512 kts | 28° |
| 2026-05-06 14:52 | -31.74880 | 178.58157 | 39280 ft | 513 kts | 28° |
| 2026-05-06 14:52 | -31.68668 | 178.62302 | 39277 ft | 514 kts | 28° |
| 2026-05-06 14:53 | -31.62438 | 178.66452 | 39275 ft | 515 kts | 28° |
| 2026-05-06 14:53 | -31.56199 | 178.70602 | 39276 ft | 515 kts | 28° |
| 2026-05-06 14:54 | -31.49946 | 178.74755 | 39275 ft | 515 kts | 28° |
| 2026-05-06 14:54 | -31.43740 | 178.78871 | 39279 ft | 517 kts | 28° |
| 2026-05-06 14:55 | -31.37485 | 178.83012 | 39270 ft | 516 kts | 28° |
| 2026-05-06 14:55 | -31.31227 | 178.87149 | 39279 ft | 514 kts | 28° |
| 2026-05-06 14:56 | -31.25018 | 178.91248 | 39271 ft | 512 kts | 28° |
| 2026-05-06 14:56 | -31.18808 | 178.95340 | 39272 ft | 513 kts | 28° |
| 2026-05-06 14:57 | -31.12601 | 178.99425 | 39269 ft | 515 kts | 28° |
| 2026-05-06 14:57 | -31.06355 | 179.03528 | 39266 ft | 515 kts | 28° |
| 2026-05-06 14:58 | -31.00111 | 179.07625 | 39270 ft | 515 kts | 28° |
| 2026-05-06 14:58 | -30.93859 | 179.11721 | 39265 ft | 515 kts | 28° |
| 2026-05-06 14:59 | -30.87603 | 179.15813 | 39263 ft | 516 kts | 28° |
| 2026-05-06 14:59 | -30.81331 | 179.19909 | 39265 ft | 517 kts | 28° |
| 2026-05-06 15:00 | -30.75046 | 179.24007 | 39270 ft | 516 kts | 28° |
| 2026-05-06 15:00 | -30.68856 | 179.28038 | 39264 ft | 511 kts | 28° |
| 2026-05-06 15:01 | -30.62647 | 179.32074 | 39260 ft | 511 kts | 28° |
| 2026-05-06 15:01 | -30.56433 | 179.36109 | 39254 ft | 511 kts | 28° |
| 2026-05-06 15:02 | -30.50217 | 179.40138 | 39247 ft | 511 kts | 28° |
| 2026-05-06 15:02 | -30.44006 | 179.44158 | 39248 ft | 511 kts | 28° |
| 2026-05-06 15:03 | -30.37789 | 179.48176 | 39241 ft | 511 kts | 28° |
| 2026-05-06 15:03 | -30.31600 | 179.52170 | 39243 ft | 513 kts | 28° |
| 2026-05-06 15:04 | -30.25351 | 179.56198 | 39249 ft | 514 kts | 28° |
| 2026-05-06 15:04 | -30.19095 | 179.60223 | 39257 ft | 513 kts | 28° |
| 2026-05-06 15:05 | -30.12895 | 179.64207 | 39249 ft | 511 kts | 28° |
| 2026-05-06 15:05 | -30.06673 | 179.68199 | 39244 ft | 512 kts | 28° |
| 2026-05-06 15:06 | -30.00438 | 179.72194 | 39240 ft | 512 kts | 28° |
| 2026-05-06 15:06 | -29.94208 | 179.76178 | 39240 ft | 512 kts | 28° |
| 2026-05-06 15:07 | -29.87981 | 179.80155 | 39234 ft | 512 kts | 28° |
| 2026-05-06 15:07 | -29.81735 | 179.84139 | 39222 ft | 512 kts | 28° |
| 2026-05-06 15:08 | -29.75526 | 179.88093 | 39224 ft | 513 kts | 28° |
| 2026-05-06 15:08 | -29.69277 | 179.92067 | 39219 ft | 513 kts | 28° |
| 2026-05-06 15:09 | -29.63024 | 179.96038 | 39217 ft | 513 kts | 28° |
| 2026-05-06 15:09 | -29.56763 | -179.99991 | 39211 ft | 513 kts | 28° |
| 2026-05-06 15:10 | -29.50495 | -179.96022 | 39212 ft | 514 kts | 27° |
| 2026-05-06 15:10 | -29.44268 | -179.92085 | 39212 ft | 511 kts | 27° |
| 2026-05-06 15:11 | -29.38027 | -179.88146 | 39212 ft | 513 kts | 28° |
| 2026-05-06 15:11 | -29.31808 | -179.84222 | 39203 ft | 509 kts | 27° |
| 2026-05-06 15:12 | -29.25568 | -179.80295 | 39203 ft | 513 kts | 27° |
| 2026-05-06 15:12 | -29.19347 | -179.76382 | 39204 ft | 514 kts | 27° |
| 2026-05-06 15:13 | -29.13043 | -179.72425 | 39197 ft | 517 kts | 27° |
| 2026-05-06 15:13 | -29.06751 | -179.68477 | 39200 ft | 513 kts | 27° |
| 2026-05-06 15:14 | -29.00488 | -179.64560 | 39199 ft | 512 kts | 27° |
| 2026-05-06 15:14 | -28.94253 | -179.60658 | 39190 ft | 511 kts | 27° |
| 2026-05-06 15:15 | -28.88014 | -179.56765 | 39194 ft | 515 kts | 27° |
| 2026-05-06 15:15 | -28.81713 | -179.52835 | 39199 ft | 516 kts | 27° |
| 2026-05-06 15:16 | -28.75415 | -179.48914 | 39202 ft | 515 kts | 27° |
| 2026-05-06 15:16 | -28.69154 | -179.45020 | 39197 ft | 515 kts | 27° |
| 2026-05-06 15:17 | -28.62867 | -179.41117 | 39167 ft | 514 kts | 27° |
| 2026-05-06 15:17 | -28.56575 | -179.37215 | 39173 ft | 516 kts | 27° |
| 2026-05-06 15:18 | -28.50263 | -179.33306 | 39165 ft | 516 kts | 27° |
| 2026-05-06 15:18 | -28.43992 | -179.29428 | 39170 ft | 516 kts | 27° |
| 2026-05-06 15:19 | -28.37683 | -179.25532 | 39157 ft | 516 kts | 27° |
| 2026-05-06 15:19 | -28.31375 | -179.21642 | 39170 ft | 514 kts | 27° |
| 2026-05-06 15:20 | -28.25104 | -179.17780 | 39167 ft | 513 kts | 27° |
| 2026-05-06 15:20 | -28.18827 | -179.13919 | 39153 ft | 514 kts | 27° |
| 2026-05-06 15:21 | -28.12531 | -179.10053 | 39159 ft | 514 kts | 27° |
| 2026-05-06 15:21 | -28.06250 | -179.06200 | 39143 ft | 513 kts | 27° |
| 2026-05-06 15:22 | -28.00001 | -179.02371 | 39139 ft | 514 kts | 27° |
| 2026-05-06 15:22 | -27.93694 | -178.98514 | 39140 ft | 515 kts | 27° |
| 2026-05-06 15:23 | -27.87376 | -178.94654 | 39139 ft | 516 kts | 27° |
| 2026-05-06 15:23 | -27.81059 | -178.90799 | 39140 ft | 515 kts | 26° |
| 2026-05-06 15:24 | -27.74754 | -178.86958 | 39147 ft | 514 kts | 27° |
| 2026-05-06 15:24 | -27.68509 | -178.83156 | 39138 ft | 511 kts | 26° |
| 2026-05-06 15:25 | -27.62264 | -178.79363 | 39128 ft | 509 kts | 26° |
| 2026-05-06 15:25 | -27.55993 | -178.75558 | 39133 ft | 512 kts | 26° |
| 2026-05-06 15:26 | -27.49768 | -178.71784 | 39133 ft | 510 kts | 26° |
| 2026-05-06 15:26 | -27.43509 | -178.67995 | 39129 ft | 512 kts | 26° |
| 2026-05-06 15:27 | -27.37200 | -178.64182 | 39132 ft | 514 kts | 26° |
| 2026-05-06 15:27 | -27.30902 | -178.60378 | 39126 ft | 514 kts | 26° |
| 2026-05-06 15:28 | -27.24638 | -178.56601 | 39128 ft | 513 kts | 26° |
| 2026-05-06 15:28 | -27.18313 | -178.52793 | 39122 ft | 512 kts | 26° |
| 2026-05-06 15:29 | -27.12060 | -178.49032 | 39115 ft | 515 kts | 26° |
| 2026-05-06 15:29 | -27.05745 | -178.45237 | 39115 ft | 512 kts | 25° |
| 2026-05-06 15:30 | -26.99494 | -178.41489 | 39108 ft | 507 kts | 25° |
| 2026-05-06 15:30 | -26.93259 | -178.37753 | 39102 ft | 508 kts | 26° |
| 2026-05-06 15:31 | -26.87023 | -178.34023 | 39101 ft | 509 kts | 25° |
| 2026-05-06 15:31 | -26.80753 | -178.30276 | 39095 ft | 513 kts | 25° |
| 2026-05-06 15:32 | -26.71312 | -178.24642 | 39090 ft | 512 kts | 26° |
| 2026-05-06 15:32 | -26.65035 | -178.20903 | 39090 ft | 511 kts | 25° |
| 2026-05-06 15:33 | -26.58793 | -178.17188 | 39092 ft | 512 kts | 25° |
| 2026-05-06 15:33 | -26.53519 | -178.14055 | 39088 ft | 513 kts | 25° |
| 2026-05-06 15:34 | -26.46159 | -178.09686 | 39090 ft | 516 kts | 25° |
| 2026-05-06 15:34 | -26.40916 | -178.06576 | 39085 ft | 509 kts | 25° |
| 2026-05-06 15:35 | -26.34693 | -178.02894 | 39069 ft | 506 kts | 25° |
| 2026-05-06 15:35 | -26.28456 | -177.99204 | 39070 ft | 508 kts | 25° |
| 2026-05-06 15:36 | -26.22201 | -177.95510 | 39070 ft | 509 kts | 25° |
| 2026-05-06 15:36 | -26.15911 | -177.91800 | 39071 ft | 512 kts | 25° |
| 2026-05-06 15:37 | -26.09616 | -177.88089 | 39067 ft | 512 kts | 25° |
| 2026-05-06 15:37 | -26.03360 | -177.84408 | 39069 ft | 511 kts | 25° |
| 2026-05-06 15:38 | -25.97071 | -177.80711 | 39064 ft | 511 kts | 25° |
| 2026-05-06 15:38 | -25.90772 | -177.77013 | 39057 ft | 512 kts | 25° |
| 2026-05-06 15:39 | -25.84447 | -177.73305 | 39052 ft | 514 kts | 25° |
| 2026-05-06 15:39 | -25.78119 | -177.69598 | 39054 ft | 512 kts | 24° |
| 2026-05-06 15:40 | -25.71905 | -177.65963 | 39042 ft | 505 kts | 24° |
| 2026-05-06 15:40 | -25.65672 | -177.62323 | 39039 ft | 506 kts | 24° |
| 2026-05-06 15:41 | -25.59436 | -177.58683 | 39038 ft | 507 kts | 24° |
| 2026-05-06 15:41 | -25.53164 | -177.55029 | 39037 ft | 510 kts | 24° |
| 2026-05-06 15:42 | -25.46884 | -177.51371 | 39035 ft | 510 kts | 24° |
| 2026-05-06 15:42 | -25.40628 | -177.47734 | 39036 ft | 510 kts | 24° |
| 2026-05-06 15:43 | -25.34344 | -177.44085 | 39029 ft | 510 kts | 24° |
| 2026-05-06 15:43 | -25.28049 | -177.40433 | 39019 ft | 509 kts | 24° |
| 2026-05-06 15:44 | -25.21781 | -177.36801 | 39007 ft | 508 kts | 24° |
| 2026-05-06 15:44 | -25.15520 | -177.33177 | 39004 ft | 507 kts | 24° |
| 2026-05-06 15:45 | -25.09340 | -177.29604 | 39000 ft | 502 kts | 24° |
| 2026-05-06 15:45 | -25.03148 | -177.26031 | 39004 ft | 503 kts | 24° |
| 2026-05-06 15:46 | -24.96932 | -177.22446 | 38987 ft | 504 kts | 24° |
| 2026-05-06 15:46 | -24.90705 | -177.18869 | 38998 ft | 504 kts | 24° |
| 2026-05-06 15:47 | -24.84515 | -177.15312 | 38994 ft | 504 kts | 24° |
| 2026-05-06 15:47 | -24.78293 | -177.11743 | 38993 ft | 504 kts | 24° |
| 2026-05-06 15:48 | -24.72079 | -177.08182 | 38987 ft | 503 kts | 24° |
| 2026-05-06 15:48 | -24.65870 | -177.04628 | 38986 ft | 502 kts | 23° |
| 2026-05-06 15:49 | -24.59663 | -177.01080 | 38980 ft | 502 kts | 23° |
| 2026-05-06 15:49 | -24.53466 | -176.97541 | 38975 ft | 501 kts | 23° |
| 2026-05-06 15:50 | -24.47270 | -176.94006 | 38973 ft | 501 kts | 23° |
| 2026-05-06 15:50 | -24.41154 | -176.90521 | 38976 ft | 497 kts | 23° |
| 2026-05-06 15:51 | -24.35011 | -176.87026 | 38941 ft | 498 kts | 23° |
| 2026-05-06 15:51 | -24.28864 | -176.83530 | 38967 ft | 498 kts | 23° |
| 2026-05-06 15:52 | -24.22711 | -176.80036 | 38967 ft | 497 kts | 23° |
| 2026-05-06 15:52 | -24.16558 | -176.76545 | 38954 ft | 497 kts | 23° |
| 2026-05-06 15:53 | -24.10412 | -176.73062 | 38962 ft | 497 kts | 23° |
| 2026-05-06 15:53 | -24.04267 | -176.69584 | 38961 ft | 497 kts | 23° |
| 2026-05-06 15:54 | -23.98143 | -176.66121 | 38957 ft | 499 kts | 23° |
| 2026-05-06 15:54 | -23.91963 | -176.62630 | 38951 ft | 500 kts | 23° |
| 2026-05-06 15:55 | -23.85771 | -176.59136 | 38958 ft | 500 kts | 23° |
| 2026-05-06 15:55 | -23.79578 | -176.55645 | 38956 ft | 499 kts | 23° |
| 2026-05-06 15:56 | -23.73464 | -176.52202 | 38946 ft | 492 kts | 22° |
| 2026-05-06 15:56 | -23.67406 | -176.48798 | 38935 ft | 494 kts | 22° |
| 2026-05-06 15:57 | -23.61275 | -176.45351 | 38939 ft | 496 kts | 22° |
| 2026-05-06 15:57 | -23.55127 | -176.41901 | 38935 ft | 497 kts | 22° |
| 2026-05-06 15:58 | -23.48973 | -176.38451 | 38940 ft | 497 kts | 22° |
| 2026-05-06 15:58 | -23.42819 | -176.35004 | 38934 ft | 497 kts | 22° |
| 2026-05-06 15:59 | -23.36703 | -176.31583 | 38920 ft | 497 kts | 22° |
| 2026-05-06 15:59 | -23.30537 | -176.28137 | 38911 ft | 499 kts | 22° |
| 2026-05-06 16:00 | -23.24364 | -176.24690 | 38909 ft | 498 kts | 22° |
| 2026-05-06 16:00 | -23.21285 | -176.22972 | 38515 ft | 495 kts | 22° |
| 2026-05-06 16:00 | -23.18215 | -176.21261 | 37820 ft | 494 kts | 22° |
| 2026-05-06 16:01 | -23.15166 | -176.19562 | 37214 ft | 491 kts | 23° |
| 2026-05-06 16:01 | -23.12126 | -176.17868 | 36614 ft | 488 kts | 23° |
| 2026-05-06 16:01 | -23.09114 | -176.16190 | 36031 ft | 484 kts | 23° |
| 2026-05-06 16:01 | -23.06123 | -176.14527 | 35459 ft | 480 kts | 23° |
| 2026-05-06 16:02 | -23.03153 | -176.12875 | 34875 ft | 477 kts | 23° |
| 2026-05-06 16:02 | -23.00214 | -176.11242 | 34314 ft | 474 kts | 23° |
| 2026-05-06 16:02 | -22.97326 | -176.09638 | 33736 ft | 470 kts | 24° |
| 2026-05-06 16:02 | -22.94428 | -176.08026 | 33162 ft | 465 kts | 24° |
| 2026-05-06 16:03 | -22.91566 | -176.06440 | 32608 ft | 458 kts | 25° |
| 2026-05-06 16:03 | -22.88739 | -176.04873 | 32078 ft | 452 kts | 25° |
| 2026-05-06 16:03 | -22.85956 | -176.03328 | 31545 ft | 446 kts | 26° |
| 2026-05-06 16:03 | -22.83207 | -176.01804 | 31026 ft | 440 kts | 26° |
| 2026-05-06 16:04 | -22.80495 | -176.00302 | 30515 ft | 434 kts | 26° |
| 2026-05-06 16:04 | -22.77825 | -175.98824 | 30008 ft | 428 kts | 27° |
| 2026-05-06 16:04 | -22.75219 | -175.97381 | 29477 ft | 421 kts | 27° |
| 2026-05-06 16:04 | -22.72625 | -175.95944 | 28981 ft | 413 kts | 26° |
| 2026-05-06 16:05 | -22.70082 | -175.94538 | 28521 ft | 407 kts | 26° |
| 2026-05-06 16:05 | -22.67579 | -175.93155 | 28052 ft | 400 kts | 26° |
| 2026-05-06 16:05 | -22.65114 | -175.91793 | 27594 ft | 394 kts | 26° |
| 2026-05-06 16:05 | -22.62693 | -175.90455 | 27154 ft | 388 kts | 26° |
| 2026-05-06 16:06 | -22.60308 | -175.89139 | 26692 ft | 382 kts | 26° |
| 2026-05-06 16:06 | -22.57979 | -175.87853 | 26267 ft | 376 kts | 26° |
| 2026-05-06 16:06 | -22.55661 | -175.86574 | 25839 ft | 372 kts | 26° |
| 2026-05-06 16:06 | -22.53369 | -175.85310 | 25421 ft | 367 kts | 26° |
| 2026-05-06 16:07 | -22.51110 | -175.84065 | 25000 ft | 362 kts | 26° |
| 2026-05-06 16:07 | -22.48873 | -175.82831 | 24600 ft | 358 kts | 26° |
| 2026-05-06 16:07 | -22.46666 | -175.81616 | 24206 ft | 354 kts | 26° |
| 2026-05-06 16:07 | -22.44464 | -175.80403 | 23805 ft | 355 kts | 26° |
| 2026-05-06 16:08 | -22.42261 | -175.79190 | 23405 ft | 357 kts | 26° |
| 2026-05-06 16:08 | -22.40070 | -175.77985 | 22959 ft | 355 kts | 26° |
| 2026-05-06 16:08 | -22.37861 | -175.76768 | 22572 ft | 358 kts | 26° |
| 2026-05-06 16:08 | -22.35601 | -175.75572 | 22168 ft | 362 kts | 19° |
| 2026-05-06 16:09 | -22.33223 | -175.74784 | 21770 ft | 354 kts | 15° |
| 2026-05-06 16:09 | -22.30860 | -175.74016 | 21371 ft | 354 kts | 15° |
| 2026-05-06 16:09 | -22.28489 | -175.73239 | 20977 ft | 357 kts | 15° |
| 2026-05-06 16:09 | -22.26124 | -175.72472 | 20565 ft | 352 kts | 15° |
| 2026-05-06 16:10 | -22.23770 | -175.71711 | 20177 ft | 354 kts | 15° |
| 2026-05-06 16:10 | -22.21435 | -175.70954 | 19792 ft | 353 kts | 15° |
| 2026-05-06 16:10 | -22.19095 | -175.70194 | 19400 ft | 349 kts | 14° |
| 2026-05-06 16:10 | -22.16770 | -175.69444 | 19017 ft | 350 kts | 14° |
| 2026-05-06 16:11 | -22.14434 | -175.68688 | 18630 ft | 351 kts | 14° |
| 2026-05-06 16:11 | -22.12100 | -175.67931 | 18243 ft | 348 kts | 14° |
| 2026-05-06 16:11 | -22.09797 | -175.67188 | 17829 ft | 343 kts | 15° |
| 2026-05-06 16:11 | -22.07504 | -175.66443 | 17444 ft | 344 kts | 14° |
| 2026-05-06 16:12 | -22.05189 | -175.65698 | 17061 ft | 349 kts | 14° |
| 2026-05-06 16:12 | -22.02867 | -175.64948 | 16676 ft | 344 kts | 14° |
| 2026-05-06 16:12 | -22.00585 | -175.64204 | 16290 ft | 344 kts | 13° |
| 2026-05-06 16:12 | -21.98279 | -175.63464 | 15917 ft | 343 kts | 14° |
| 2026-05-06 16:13 | -21.95996 | -175.62725 | 15539 ft | 344 kts | 13° |
| 2026-05-06 16:13 | -21.93713 | -175.61990 | 15165 ft | 348 kts | 13° |
| 2026-05-06 16:13 | -21.91412 | -175.61250 | 14786 ft | 343 kts | 14° |
| 2026-05-06 16:13 | -21.89143 | -175.60514 | 14417 ft | 340 kts | 13° |
| 2026-05-06 16:14 | -21.86879 | -175.59787 | 14175 ft | 338 kts | 14° |
| 2026-05-06 16:14 | -21.84645 | -175.59068 | 13833 ft | 333 kts | 14° |
| 2026-05-06 16:14 | -21.82413 | -175.58349 | 13446 ft | 334 kts | 14° |
| 2026-05-06 16:14 | -21.80170 | -175.57625 | 13069 ft | 338 kts | 14° |
| 2026-05-06 16:15 | -21.77936 | -175.56905 | 12696 ft | 336 kts | 13° |
| 2026-05-06 16:15 | -21.75708 | -175.56187 | 12333 ft | 332 kts | 13° |
| 2026-05-06 16:15 | -21.73490 | -175.55475 | 11954 ft | 334 kts | 14° |
| 2026-05-06 16:15 | -21.71284 | -175.54768 | 11586 ft | 328 kts | 13° |
| 2026-05-06 16:16 | -21.69095 | -175.54061 | 11232 ft | 328 kts | 13° |
| 2026-05-06 16:16 | -21.66916 | -175.53363 | 10874 ft | 323 kts | 15° |
| 2026-05-06 16:16 | -21.64811 | -175.52682 | 10532 ft | 315 kts | 14° |
| 2026-05-06 16:16 | -21.62757 | -175.52019 | 10388 ft | 300 kts | 13° |
| 2026-05-06 16:17 | -21.60794 | -175.51392 | 10176 ft | 290 kts | 14° |
| 2026-05-06 16:17 | -21.58835 | -175.50765 | 9901 ft | 298 kts | 13° |
| 2026-05-06 16:17 | -21.56867 | -175.50135 | 9595 ft | 292 kts | 13° |
| 2026-05-06 16:17 | -21.54902 | -175.49506 | 9302 ft | 294 kts | 14° |
| 2026-05-06 16:18 | -21.52953 | -175.48876 | 9011 ft | 294 kts | 14° |
| 2026-05-06 16:18 | -21.50986 | -175.48247 | 8723 ft | 292 kts | 15° |
| 2026-05-06 16:18 | -21.49066 | -175.47631 | 8435 ft | 284 kts | 15° |
| 2026-05-06 16:18 | -21.47158 | -175.47018 | 8160 ft | 293 kts | 15° |
| 2026-05-06 16:19 | -21.45184 | -175.46389 | 7860 ft | 295 kts | 16° |
| 2026-05-06 16:19 | -21.43256 | -175.45769 | 7574 ft | 293 kts | 15° |
| 2026-05-06 16:19 | -21.41244 | -175.45125 | 7291 ft | 303 kts | 16° |
| 2026-05-06 16:19 | -21.39247 | -175.44486 | 6980 ft | 298 kts | 16° |
| 2026-05-06 16:20 | -21.37257 | -175.43848 | 6692 ft | 296 kts | 17° |
| 2026-05-06 16:20 | -21.35247 | -175.43204 | 6399 ft | 300 kts | 17° |
| 2026-05-06 16:20 | -21.33268 | -175.42570 | 6090 ft | 298 kts | 18° |
| 2026-05-06 16:20 | -21.31966 | -175.42148 | 5875 ft | 293 kts | 16° |
| 2026-05-06 16:21 | -21.30056 | -175.41544 | 5607 ft | 279 kts | 17° |
| 2026-05-06 16:21 | -21.28231 | -175.40962 | 5318 ft | 268 kts | 18° |
| 2026-05-06 16:21 | -21.25777 | -175.40172 | 4953 ft | 289 kts | 19° |
| 2026-05-06 16:21 | -21.23839 | -175.39552 | 4662 ft | 291 kts | 20° |
| 2026-05-06 16:22 | -21.21936 | -175.38947 | 4352 ft | 281 kts | 20° |
| 2026-05-06 16:22 | -21.20675 | -175.38521 | 4154 ft | 283 kts | 25° |
| 2026-05-06 16:22 | -21.19121 | -175.37361 | 3855 ft | 261 kts | 54° |
| 2026-05-06 16:22 | -21.17973 | -175.35881 | 3624 ft | 259 kts | 59° |
| 2026-05-06 16:23 | -21.16889 | -175.34369 | 3445 ft | 258 kts | 61° |
| 2026-05-06 16:23 | -21.15915 | -175.32768 | 3298 ft | 249 kts | 79° |
| 2026-05-06 16:23 | -21.15729 | -175.31070 | 3121 ft | 217 kts | 100° |
| 2026-05-06 16:23 | -21.15931 | -175.29539 | 2894 ft | 199 kts | 111° |
| 2026-05-06 16:24 | -21.16373 | -175.28202 | 2669 ft | 182 kts | 122° |
| 2026-05-06 16:24 | -21.16988 | -175.27070 | 2438 ft | 168 kts | 128° |
| 2026-05-06 16:24 | -21.17589 | -175.26066 | 2212 ft | 154 kts | 130° |
| 2026-05-06 16:24 | -21.18135 | -175.25149 | 2032 ft | 139 kts | 131° |
| 2026-05-06 16:25 | -21.18646 | -175.24286 | 1847 ft | 131 kts | 131° |
| 2026-05-06 16:25 | -21.19131 | -175.23464 | 1683 ft | 134 kts | 131° |
| 2026-05-06 16:25 | -21.19632 | -175.22614 | 1499 ft | 135 kts | 130° |
| 2026-05-06 16:25 | -21.20128 | -175.21762 | 1323 ft | 136 kts | 131° |
| 2026-05-06 16:26 | -21.20635 | -175.20906 | 1139 ft | 138 kts | 129° |
| 2026-05-06 16:26 | -21.21140 | -175.20034 | 973 ft | 137 kts | 131° |
| 2026-05-06 16:26 | -21.21657 | -175.19159 | 793 ft | 141 kts | 127° |
| 2026-05-06 16:26 | -21.22206 | -175.18223 | 537 ft | 154 kts | 127° |
| 2026-05-06 16:27 | -21.22732 | -175.17309 | 385 ft | 144 kts | 128° |
| 2026-05-06 16:27 | -21.23280 | -175.16352 | 204 ft | 152 kts | 129° |
| 2026-05-06 16:27 | -21.23792 | -175.15494 | 115 ft | 101 kts | 121° |
| 2026-05-06 16:27 | -21.24020 | -175.15102 | 117 ft | 51 kts | 122° |
| 2026-05-06 16:28 | -21.24218 | -175.14763 | 120 ft | 56 kts | 122° |
| 2026-05-06 16:28 | -21.24422 | -175.14412 | 125 ft | 45 kts | 122° |
| 2026-05-06 16:28 | -21.24432 | -175.14313 | 123 ft | 1 kts | 21° |
| 2026-05-06 16:28 | -21.24402 | -175.14309 | 125 ft | 8 kts | 14° |
| 2026-05-06 16:29 | -21.24351 | -175.14284 | 123 ft | 9 kts | 31° |
| 2026-05-06 16:29 | -21.24289 | -175.14241 | 124 ft | 12 kts | 33° |
| 2026-05-06 16:29 | -21.24237 | -175.14237 | 124 ft | 4 kts | 328° |
| 2026-05-06 16:29 | -21.24203 | -175.14286 | 122 ft | 2 kts | 325° |
| 2026-05-06 16:30 | -21.24190 | -175.14286 | 122 ft | 1 kts | 15° |
| 2026-05-06 16:30 | -21.24181 | -175.14279 | 123 ft | 3 kts | 42° |
| 2026-05-06 16:30 | -21.24177 | -175.14261 | 122 ft | 0 kts | 89° |